< < Back
Terminal Aerodrome Forecast


Current Version              Previous Versions:   1  2  3  4  5  6  7  8  9  

Terminal Aerodrome Forecast

471
FTUS44 KBMX 012006 AAA
TAFMGM
TAF AMD
KMGM 012006Z 0120/0218 20006KT P6SM SCT040
     FM012200 27012G20KT 3SM TSRA SCT025 BKN040CB
     FM020100 VRB04KT P6SM SCT025 BKN050
     FM020900 VRB04KT P6SM BKN015=

Latest METAR

961
SAUS80 KWBC 020100 RRA
MTRMGM
METAR KMGM 020053Z 11004KT 10SM FEW100 22/19 A3002 RMK AO2 SLP164
T02220189 $


USA.gov is the U.S. government's official web portal to all federal, state and local government web resources and services.